sensor_id;sensor_type;location;lat;lon;timestamp;P1;durP1;ratioP1;P2;durP2;ratioP2
54787;SDS011;59598;48.112;16.280;2023-08-17T00:01:53;6.00;;;4.55;;
54787;SDS011;59598;48.112;16.280;2023-08-17T00:04:25;5.40;;;4.60;;
54787;SDS011;59598;48.112;16.280;2023-08-17T00:06:58;7.47;;;4.90;;
54787;SDS011;59598;48.112;16.280;2023-08-17T00:09:34;5.95;;;4.70;;
54787;SDS011;59598;48.112;16.280;2023-08-17T00:12:06;5.30;;;3.92;;
54787;SDS011;59598;48.112;16.280;2023-08-17T00:14:38;5.05;;;4.43;;
54787;SDS011;59598;48.112;16.280;2023-08-17T00:17:16;6.40;;;4.97;;
54787;SDS011;59598;48.112;16.280;2023-08-17T00:19:50;9.55;;;4.82;;
54787;SDS011;59598;48.112;16.280;2023-08-17T00:22:22;5.38;;;4.43;;
54787;SDS011;59598;48.112;16.280;2023-08-17T00:24:58;5.45;;;4.90;;
54787;SDS011;59598;48.112;16.280;2023-08-17T00:27:34;5.47;;;4.03;;
54787;SDS011;59598;48.112;16.280;2023-08-17T00:30:05;8.02;;;4.60;;
54787;SDS011;59598;48.112;16.280;2023-08-17T00:32:40;5.00;;;4.50;;
54787;SDS011;59598;48.112;16.280;2023-08-17T00:35:12;6.88;;;5.28;;
54787;SDS011;59598;48.112;16.280;2023-08-17T00:37:44;5.35;;;4.53;;
54787;SDS011;59598;48.112;16.280;2023-08-17T00:40:19;5.43;;;4.78;;
54787;SDS011;59598;48.112;16.280;2023-08-17T00:42:53;5.82;;;4.60;;
54787;SDS011;59598;48.112;16.280;2023-08-17T00:45:27;6.38;;;4.88;;
54787;SDS011;59598;48.112;16.280;2023-08-17T00:50:35;5.95;;;5.28;;
54787;SDS011;59598;48.112;16.280;2023-08-17T00:53:13;6.55;;;4.45;;
54787;SDS011;59598;48.112;16.280;2023-08-17T00:55:49;5.32;;;4.72;;
54787;SDS011;59598;48.112;16.280;2023-08-17T00:58:25;6.43;;;4.40;;
54787;SDS011;59598;48.112;16.280;2023-08-17T01:01:02;6.53;;;4.85;;
54787;SDS011;59598;48.112;16.280;2023-08-17T01:03:34;5.43;;;4.60;;
54787;SDS011;59598;48.112;16.280;2023-08-17T01:06:06;7.60;;;5.55;;
54787;SDS011;59598;48.112;16.280;2023-08-17T01:08:43;5.97;;;4.78;;
54787;SDS011;59598;48.112;16.280;2023-08-17T01:17:12;7.32;;;4.53;;
54787;SDS011;59598;48.112;16.280;2023-08-17T01:19:53;6.35;;;5.13;;
54787;SDS011;59598;48.112;16.280;2023-08-17T01:22:27;7.85;;;4.80;;
54787;SDS011;59598;48.112;16.280;2023-08-17T01:25:01;6.13;;;4.57;;
54787;SDS011;59598;48.112;16.280;2023-08-17T01:27:36;6.93;;;5.47;;
54787;SDS011;59598;48.112;16.280;2023-08-17T01:30:12;6.90;;;5.60;;
54787;SDS011;59598;48.112;16.280;2023-08-17T01:32:53;5.95;;;5.20;;
54787;SDS011;59598;48.112;16.280;2023-08-17T01:38:30;5.43;;;4.53;;
54787;SDS011;59598;48.112;16.280;2023-08-17T01:41:09;8.57;;;5.97;;
54787;SDS011;59598;48.112;16.280;2023-08-17T01:43:46;9.23;;;6.40;;
54787;SDS011;59598;48.112;16.280;2023-08-17T01:46:22;7.05;;;5.53;;
54787;SDS011;59598;48.112;16.280;2023-08-17T01:49:00;8.93;;;6.20;;
54787;SDS011;59598;48.112;16.280;2023-08-17T01:51:32;7.50;;;6.05;;
54787;SDS011;59598;48.112;16.280;2023-08-17T01:54:06;9.18;;;6.68;;
54787;SDS011;59598;48.112;16.280;2023-08-17T01:56:43;9.15;;;6.43;;
54787;SDS011;59598;48.112;16.280;2023-08-17T01:59:15;8.45;;;6.57;;
54787;SDS011;59598;48.112;16.280;2023-08-17T02:01:59;7.97;;;6.47;;
54787;SDS011;59598;48.112;16.280;2023-08-17T02:04:31;7.57;;;5.88;;
54787;SDS011;59598;48.112;16.280;2023-08-17T02:07:07;9.70;;;6.35;;
54787;SDS011;59598;48.112;16.280;2023-08-17T02:09:41;9.07;;;6.63;;
54787;SDS011;59598;48.112;16.280;2023-08-17T02:12:15;7.50;;;6.13;;
54787;SDS011;59598;48.112;16.280;2023-08-17T02:14:47;9.10;;;6.25;;
54787;SDS011;59598;48.112;16.280;2023-08-17T02:17:22;8.80;;;5.72;;
54787;SDS011;59598;48.112;16.280;2023-08-17T02:19:59;7.35;;;5.80;;
54787;SDS011;59598;48.112;16.280;2023-08-17T02:22:31;7.07;;;6.10;;
54787;SDS011;59598;48.112;16.280;2023-08-17T02:25:05;6.32;;;5.70;;
54787;SDS011;59598;48.112;16.280;2023-08-17T02:27:40;6.40;;;5.60;;
54787;SDS011;59598;48.112;16.280;2023-08-17T02:30:14;7.43;;;6.50;;
54787;SDS011;59598;48.112;16.280;2023-08-17T02:32:45;9.77;;;5.85;;
54787;SDS011;59598;48.112;16.280;2023-08-17T02:35:17;7.60;;;5.88;;
54787;SDS011;59598;48.112;16.280;2023-08-17T02:37:50;9.38;;;6.88;;
54787;SDS011;59598;48.112;16.280;2023-08-17T02:40:25;8.35;;;5.95;;
54787;SDS011;59598;48.112;16.280;2023-08-17T02:42:58;9.50;;;6.65;;
54787;SDS011;59598;48.112;16.280;2023-08-17T02:45:33;8.85;;;6.32;;
54787;SDS011;59598;48.112;16.280;2023-08-17T02:48:08;9.35;;;6.70;;
54787;SDS011;59598;48.112;16.280;2023-08-17T02:50:40;9.27;;;6.82;;
54787;SDS011;59598;48.112;16.280;2023-08-17T02:53:14;7.47;;;6.72;;
54787;SDS011;59598;48.112;16.280;2023-08-17T02:55:46;7.43;;;6.40;;
54787;SDS011;59598;48.112;16.280;2023-08-17T02:58:20;8.43;;;5.82;;
54787;SDS011;59598;48.112;16.280;2023-08-17T03:00:56;10.70;;;6.15;;
54787;SDS011;59598;48.112;16.280;2023-08-17T03:03:32;8.07;;;6.30;;
54787;SDS011;59598;48.112;16.280;2023-08-17T03:06:10;8.25;;;6.28;;
54787;SDS011;59598;48.112;16.280;2023-08-17T03:08:41;11.15;;;6.15;;
54787;SDS011;59598;48.112;16.280;2023-08-17T03:11:23;7.55;;;5.65;;
54787;SDS011;59598;48.112;16.280;2023-08-17T03:13:55;10.77;;;6.10;;
54787;SDS011;59598;48.112;16.280;2023-08-17T03:16:30;7.13;;;5.80;;
54787;SDS011;59598;48.112;16.280;2023-08-17T03:19:07;7.18;;;5.43;;
54787;SDS011;59598;48.112;16.280;2023-08-17T03:21:42;7.95;;;6.35;;
54787;SDS011;59598;48.112;16.280;2023-08-17T03:24:14;7.35;;;6.55;;
54787;SDS011;59598;48.112;16.280;2023-08-17T03:26:52;7.95;;;6.47;;
54787;SDS011;59598;48.112;16.280;2023-08-17T03:29:24;8.65;;;6.30;;
54787;SDS011;59598;48.112;16.280;2023-08-17T03:31:58;11.27;;;6.80;;
54787;SDS011;59598;48.112;16.280;2023-08-17T03:34:29;9.00;;;6.32;;
54787;SDS011;59598;48.112;16.280;2023-08-17T03:37:04;8.68;;;6.22;;
54787;SDS011;59598;48.112;16.280;2023-08-17T03:39:39;8.32;;;6.30;;
54787;SDS011;59598;48.112;16.280;2023-08-17T03:42:18;8.93;;;7.03;;
54787;SDS011;59598;48.112;16.280;2023-08-17T03:44:50;7.82;;;6.57;;
54787;SDS011;59598;48.112;16.280;2023-08-17T03:47:25;8.00;;;6.13;;
54787;SDS011;59598;48.112;16.280;2023-08-17T03:49:58;8.55;;;6.50;;
54787;SDS011;59598;48.112;16.280;2023-08-17T03:52:31;9.63;;;7.03;;
54787;SDS011;59598;48.112;16.280;2023-08-17T03:55:06;7.25;;;5.85;;
54787;SDS011;59598;48.112;16.280;2023-08-17T04:00:12;8.55;;;6.50;;
54787;SDS011;59598;48.112;16.280;2023-08-17T04:02:49;7.70;;;6.05;;
54787;SDS011;59598;48.112;16.280;2023-08-17T04:05:22;7.88;;;6.22;;
54787;SDS011;59598;48.112;16.280;2023-08-17T04:07:54;7.32;;;5.68;;
54787;SDS011;59598;48.112;16.280;2023-08-17T04:10:35;6.65;;;5.43;;
54787;SDS011;59598;48.112;16.280;2023-08-17T04:13:16;8.18;;;7.05;;
54787;SDS011;59598;48.112;16.280;2023-08-17T04:15:52;10.05;;;7.45;;
54787;SDS011;59598;48.112;16.280;2023-08-17T04:18:23;9.38;;;6.57;;
54787;SDS011;59598;48.112;16.280;2023-08-17T04:20:57;8.05;;;6.10;;
54787;SDS011;59598;48.112;16.280;2023-08-17T04:23:29;8.85;;;6.40;;
54787;SDS011;59598;48.112;16.280;2023-08-17T04:26:00;9.82;;;6.75;;
54787;SDS011;59598;48.112;16.280;2023-08-17T04:28:32;7.88;;;6.55;;
54787;SDS011;59598;48.112;16.280;2023-08-17T04:31:06;6.97;;;5.63;;
54787;SDS011;59598;48.112;16.280;2023-08-17T04:33:40;14.10;;;6.90;;
54787;SDS011;59598;48.112;16.280;2023-08-17T04:36:14;9.43;;;7.32;;
54787;SDS011;59598;48.112;16.280;2023-08-17T04:38:48;8.13;;;6.50;;
54787;SDS011;59598;48.112;16.280;2023-08-17T04:41:23;8.90;;;6.78;;
54787;SDS011;59598;48.112;16.280;2023-08-17T04:43:57;12.27;;;6.90;;
54787;SDS011;59598;48.112;16.280;2023-08-17T04:46:29;9.82;;;7.43;;
54787;SDS011;59598;48.112;16.280;2023-08-17T04:49:00;12.50;;;7.05;;
54787;SDS011;59598;48.112;16.280;2023-08-17T04:54:09;9.35;;;7.15;;
54787;SDS011;59598;48.112;16.280;2023-08-17T04:56:42;7.72;;;6.05;;
54787;SDS011;59598;48.112;16.280;2023-08-17T04:59:14;7.30;;;5.75;;
54787;SDS011;59598;48.112;16.280;2023-08-17T05:01:51;8.57;;;6.40;;
54787;SDS011;59598;48.112;16.280;2023-08-17T05:04:25;7.75;;;6.22;;
54787;SDS011;59598;48.112;16.280;2023-08-17T05:06:59;6.72;;;5.75;;
54787;SDS011;59598;48.112;16.280;2023-08-17T05:09:33;7.55;;;6.13;;
54787;SDS011;59598;48.112;16.280;2023-08-17T05:12:13;8.75;;;5.50;;
54787;SDS011;59598;48.112;16.280;2023-08-17T05:14:45;6.28;;;5.55;;
54787;SDS011;59598;48.112;16.280;2023-08-17T05:17:17;8.80;;;5.38;;
54787;SDS011;59598;48.112;16.280;2023-08-17T05:19:54;8.65;;;5.85;;
54787;SDS011;59598;48.112;16.280;2023-08-17T05:22:29;5.47;;;4.80;;
54787;SDS011;59598;48.112;16.280;2023-08-17T05:25:03;8.23;;;5.72;;
54787;SDS011;59598;48.112;16.280;2023-08-17T05:27:38;6.93;;;5.50;;
54787;SDS011;59598;48.112;16.280;2023-08-17T05:30:10;8.30;;;5.68;;
54787;SDS011;59598;48.112;16.280;2023-08-17T05:32:47;9.68;;;6.18;;
54787;SDS011;59598;48.112;16.280;2023-08-17T05:35:18;8.60;;;5.80;;
54787;SDS011;59598;48.112;16.280;2023-08-17T05:37:54;7.35;;;6.28;;
54787;SDS011;59598;48.112;16.280;2023-08-17T05:40:32;10.52;;;5.55;;
54787;SDS011;59598;48.112;16.280;2023-08-17T05:43:06;7.30;;;5.85;;
54787;SDS011;59598;48.112;16.280;2023-08-17T05:45:42;8.30;;;6.18;;
54787;SDS011;59598;48.112;16.280;2023-08-17T05:48:18;8.32;;;6.20;;
54787;SDS011;59598;48.112;16.280;2023-08-17T05:50:55;8.93;;;5.72;;
54787;SDS011;59598;48.112;16.280;2023-08-17T05:53:27;10.23;;;5.97;;
54787;SDS011;59598;48.112;16.280;2023-08-17T05:55:59;7.20;;;6.07;;
54787;SDS011;59598;48.112;16.280;2023-08-17T05:58:30;7.25;;;5.40;;
54787;SDS011;59598;48.112;16.280;2023-08-17T06:01:08;7.25;;;5.82;;
54787;SDS011;59598;48.112;16.280;2023-08-17T06:03:43;7.03;;;5.45;;
54787;SDS011;59598;48.112;16.280;2023-08-17T06:06:18;9.45;;;6.78;;
54787;SDS011;59598;48.112;16.280;2023-08-17T06:11:31;9.38;;;6.45;;
54787;SDS011;59598;48.112;16.280;2023-08-17T06:14:02;6.50;;;5.82;;
54787;SDS011;59598;48.112;16.280;2023-08-17T06:16:34;7.95;;;6.20;;
54787;SDS011;59598;48.112;16.280;2023-08-17T06:19:07;7.35;;;5.75;;
54787;SDS011;59598;48.112;16.280;2023-08-17T06:21:38;7.68;;;5.60;;
54787;SDS011;59598;48.112;16.280;2023-08-17T06:24:10;8.68;;;5.20;;
54787;SDS011;59598;48.112;16.280;2023-08-17T06:26:44;10.80;;;5.38;;
54787;SDS011;59598;48.112;16.280;2023-08-17T06:29:16;5.85;;;5.25;;
54787;SDS011;59598;48.112;16.280;2023-08-17T06:34:22;6.18;;;5.05;;
54787;SDS011;59598;48.112;16.280;2023-08-17T06:36:57;7.85;;;4.85;;
54787;SDS011;59598;48.112;16.280;2023-08-17T06:39:32;7.38;;;5.47;;
54787;SDS011;59598;48.112;16.280;2023-08-17T06:42:06;7.40;;;5.63;;
54787;SDS011;59598;48.112;16.280;2023-08-17T06:44:42;7.57;;;5.78;;
54787;SDS011;59598;48.112;16.280;2023-08-17T06:47:17;7.70;;;6.10;;
54787;SDS011;59598;48.112;16.280;2023-08-17T06:49:49;8.38;;;5.90;;
54787;SDS011;59598;48.112;16.280;2023-08-17T06:52:20;6.70;;;5.38;;
54787;SDS011;59598;48.112;16.280;2023-08-17T06:54:54;8.13;;;5.45;;
54787;SDS011;59598;48.112;16.280;2023-08-17T07:00:00;6.88;;;5.10;;
54787;SDS011;59598;48.112;16.280;2023-08-17T07:02:31;7.82;;;5.50;;
54787;SDS011;59598;48.112;16.280;2023-08-17T07:05:06;10.68;;;5.90;;
54787;SDS011;59598;48.112;16.280;2023-08-17T07:07:43;6.53;;;5.07;;
54787;SDS011;59598;48.112;16.280;2023-08-17T07:10:20;7.05;;;5.68;;
54787;SDS011;59598;48.112;16.280;2023-08-17T07:15:25;5.43;;;4.88;;
54787;SDS011;59598;48.112;16.280;2023-08-17T07:18:01;6.95;;;4.78;;
54787;SDS011;59598;48.112;16.280;2023-08-17T07:23:04;7.82;;;5.85;;
54787;SDS011;59598;48.112;16.280;2023-08-17T07:25:38;6.40;;;5.18;;
54787;SDS011;59598;48.112;16.280;2023-08-17T07:28:09;6.47;;;5.13;;
54787;SDS011;59598;48.112;16.280;2023-08-17T07:30:41;6.00;;;4.60;;
54787;SDS011;59598;48.112;16.280;2023-08-17T07:33:12;8.15;;;5.70;;
54787;SDS011;59598;48.112;16.280;2023-08-17T07:35:49;5.47;;;4.88;;
54787;SDS011;59598;48.112;16.280;2023-08-17T07:38:26;5.95;;;4.70;;
54787;SDS011;59598;48.112;16.280;2023-08-17T07:41:00;5.78;;;4.40;;
54787;SDS011;59598;48.112;16.280;2023-08-17T07:43:32;8.30;;;5.05;;
54787;SDS011;59598;48.112;16.280;2023-08-17T07:46:03;7.78;;;5.38;;
54787;SDS011;59598;48.112;16.280;2023-08-17T07:48:35;7.10;;;5.82;;
54787;SDS011;59598;48.112;16.280;2023-08-17T07:51:07;9.52;;;5.63;;
54787;SDS011;59598;48.112;16.280;2023-08-17T07:53:38;7.03;;;5.60;;
54787;SDS011;59598;48.112;16.280;2023-08-17T07:56:13;6.50;;;4.38;;
54787;SDS011;59598;48.112;16.280;2023-08-17T07:58:48;7.13;;;4.53;;
54787;SDS011;59598;48.112;16.280;2023-08-17T08:01:20;6.53;;;4.88;;
54787;SDS011;59598;48.112;16.280;2023-08-17T08:03:51;5.57;;;3.92;;
54787;SDS011;59598;48.112;16.280;2023-08-17T08:06:25;5.07;;;4.32;;
54787;SDS011;59598;48.112;16.280;2023-08-17T08:08:59;6.55;;;4.07;;
54787;SDS011;59598;48.112;16.280;2023-08-17T08:11:31;5.28;;;4.35;;
54787;SDS011;59598;48.112;16.280;2023-08-17T08:14:02;4.53;;;4.13;;
54787;SDS011;59598;48.112;16.280;2023-08-17T08:16:41;5.13;;;4.15;;
54787;SDS011;59598;48.112;16.280;2023-08-17T08:19:12;5.22;;;4.43;;
54787;SDS011;59598;48.112;16.280;2023-08-17T08:21:48;5.80;;;4.50;;
54787;SDS011;59598;48.112;16.280;2023-08-17T08:24:20;8.05;;;4.13;;
54787;SDS011;59598;48.112;16.280;2023-08-17T08:26:52;6.40;;;4.30;;
54787;SDS011;59598;48.112;16.280;2023-08-17T08:29:25;4.63;;;4.23;;
54787;SDS011;59598;48.112;16.280;2023-08-17T08:31:59;5.75;;;4.75;;
54787;SDS011;59598;48.112;16.280;2023-08-17T08:34:33;5.70;;;4.20;;
54787;SDS011;59598;48.112;16.280;2023-08-17T08:37:07;5.35;;;4.60;;
54787;SDS011;59598;48.112;16.280;2023-08-17T08:39:48;4.80;;;4.25;;
54787;SDS011;59598;48.112;16.280;2023-08-17T08:42:22;4.57;;;4.18;;
54787;SDS011;59598;48.112;16.280;2023-08-17T08:45:02;5.75;;;4.30;;
54787;SDS011;59598;48.112;16.280;2023-08-17T08:47:34;4.32;;;3.88;;
54787;SDS011;59598;48.112;16.280;2023-08-17T08:52:43;7.10;;;4.50;;
54787;SDS011;59598;48.112;16.280;2023-08-17T08:55:23;4.75;;;4.18;;
54787;SDS011;59598;48.112;16.280;2023-08-17T08:58:03;7.45;;;4.28;;
54787;SDS011;59598;48.112;16.280;2023-08-17T09:00:37;4.55;;;4.07;;
54787;SDS011;59598;48.112;16.280;2023-08-17T09:03:10;5.38;;;3.88;;
54787;SDS011;59598;48.112;16.280;2023-08-17T09:05:49;4.15;;;3.75;;
54787;SDS011;59598;48.112;16.280;2023-08-17T09:08:25;6.20;;;4.10;;
54787;SDS011;59598;48.112;16.280;2023-08-17T09:11:03;5.95;;;3.90;;
54787;SDS011;59598;48.112;16.280;2023-08-17T09:13:34;5.10;;;4.60;;
54787;SDS011;59598;48.112;16.280;2023-08-17T09:16:06;4.97;;;3.83;;
54787;SDS011;59598;48.112;16.280;2023-08-17T09:18:38;7.07;;;3.45;;
54787;SDS011;59598;48.112;16.280;2023-08-17T09:23:57;6.30;;;3.17;;
54787;SDS011;59598;48.112;16.280;2023-08-17T09:26:32;3.13;;;2.70;;
54787;SDS011;59598;48.112;16.280;2023-08-17T09:29:20;4.32;;;3.22;;
54787;SDS011;59598;48.112;16.280;2023-08-17T09:31:57;4.22;;;3.75;;
54787;SDS011;59598;48.112;16.280;2023-08-17T09:34:31;3.95;;;2.95;;
54787;SDS011;59598;48.112;16.280;2023-08-17T09:37:07;3.42;;;2.65;;
54787;SDS011;59598;48.112;16.280;2023-08-17T09:39:39;3.25;;;2.95;;
54787;SDS011;59598;48.112;16.280;2023-08-17T09:42:14;4.22;;;3.10;;
54787;SDS011;59598;48.112;16.280;2023-08-17T09:44:51;3.17;;;2.78;;
54787;SDS011;59598;48.112;16.280;2023-08-17T09:47:27;3.13;;;2.67;;
54787;SDS011;59598;48.112;16.280;2023-08-17T09:50:03;4.18;;;3.08;;
54787;SDS011;59598;48.112;16.280;2023-08-17T09:52:38;3.92;;;3.38;;
54787;SDS011;59598;48.112;16.280;2023-08-17T09:55:13;3.05;;;2.67;;
54787;SDS011;59598;48.112;16.280;2023-08-17T09:57:45;3.35;;;3.05;;
54787;SDS011;59598;48.112;16.280;2023-08-17T10:00:20;3.90;;;3.10;;
54787;SDS011;59598;48.112;16.280;2023-08-17T10:03:02;3.72;;;3.22;;
54787;SDS011;59598;48.112;16.280;2023-08-17T10:05:35;3.95;;;3.55;;
54787;SDS011;59598;48.112;16.280;2023-08-17T10:08:10;6.05;;;3.10;;
54787;SDS011;59598;48.112;16.280;2023-08-17T10:10:44;2.90;;;2.60;;
54787;SDS011;59598;48.112;16.280;2023-08-17T10:19:25;3.67;;;2.70;;
54787;SDS011;59598;48.112;16.280;2023-08-17T10:25:18;3.20;;;2.88;;
54787;SDS011;59598;48.112;16.280;2023-08-17T10:27:52;3.65;;;2.90;;
54787;SDS011;59598;48.112;16.280;2023-08-17T10:30:25;5.40;;;2.45;;
54787;SDS011;59598;48.112;16.280;2023-08-17T10:33:00;4.03;;;2.95;;
54787;SDS011;59598;48.112;16.280;2023-08-17T10:35:43;3.15;;;2.55;;
54787;SDS011;59598;48.112;16.280;2023-08-17T10:38:15;4.35;;;3.25;;
54787;SDS011;59598;48.112;16.280;2023-08-17T10:41:09;3.08;;;2.80;;
54787;SDS011;59598;48.112;16.280;2023-08-17T10:43:53;3.20;;;2.92;;
54787;SDS011;59598;48.112;16.280;2023-08-17T10:46:34;3.40;;;2.60;;
54787;SDS011;59598;48.112;16.280;2023-08-17T10:49:23;4.57;;;2.75;;
54787;SDS011;59598;48.112;16.280;2023-08-17T10:51:59;3.65;;;3.00;;
54787;SDS011;59598;48.112;16.280;2023-08-17T10:54:38;3.10;;;2.80;;
54787;SDS011;59598;48.112;16.280;2023-08-17T11:00:16;3.50;;;2.30;;
54787;SDS011;59598;48.112;16.280;2023-08-17T11:05:41;3.55;;;2.80;;
54787;SDS011;59598;48.112;16.280;2023-08-17T11:08:20;2.60;;;2.40;;
54787;SDS011;59598;48.112;16.280;2023-08-17T11:13:38;2.80;;;2.60;;
54787;SDS011;59598;48.112;16.280;2023-08-17T11:16:11;3.42;;;2.60;;
54787;SDS011;59598;48.112;16.280;2023-08-17T11:18:45;3.10;;;2.80;;
54787;SDS011;59598;48.112;16.280;2023-08-17T11:21:23;4.13;;;3.08;;
54787;SDS011;59598;48.112;16.280;2023-08-17T11:23:57;4.55;;;2.95;;
54787;SDS011;59598;48.112;16.280;2023-08-17T11:26:32;2.53;;;2.33;;
54787;SDS011;59598;48.112;16.280;2023-08-17T11:29:03;3.47;;;3.17;;
54787;SDS011;59598;48.112;16.280;2023-08-17T11:31:40;3.22;;;2.92;;
54787;SDS011;59598;48.112;16.280;2023-08-17T11:34:14;3.30;;;2.65;;
54787;SDS011;59598;48.112;16.280;2023-08-17T11:36:46;2.92;;;2.70;;
54787;SDS011;59598;48.112;16.280;2023-08-17T11:39:19;3.08;;;2.63;;
54787;SDS011;59598;48.112;16.280;2023-08-17T11:41:51;2.90;;;2.70;;
54787;SDS011;59598;48.112;16.280;2023-08-17T11:44:24;2.88;;;2.58;;
54787;SDS011;59598;48.112;16.280;2023-08-17T11:47:00;2.63;;;2.42;;
54787;SDS011;59598;48.112;16.280;2023-08-17T11:49:33;3.00;;;2.70;;
54787;SDS011;59598;48.112;16.280;2023-08-17T11:52:05;2.80;;;2.60;;
54787;SDS011;59598;48.112;16.280;2023-08-17T11:54:40;3.53;;;2.50;;
54787;SDS011;59598;48.112;16.280;2023-08-17T11:57:19;3.65;;;3.08;;
54787;SDS011;59598;48.112;16.280;2023-08-17T11:59:54;3.20;;;2.92;;
54787;SDS011;59598;48.112;16.280;2023-08-17T12:02:30;3.35;;;2.90;;
54787;SDS011;59598;48.112;16.280;2023-08-17T12:05:08;3.40;;;3.13;;
54787;SDS011;59598;48.112;16.280;2023-08-17T12:07:45;4.88;;;3.33;;
54787;SDS011;59598;48.112;16.280;2023-08-17T12:10:17;3.42;;;2.85;;
54787;SDS011;59598;48.112;16.280;2023-08-17T12:12:52;3.80;;;3.08;;
54787;SDS011;59598;48.112;16.280;2023-08-17T12:15:32;3.80;;;3.40;;
54787;SDS011;59598;48.112;16.280;2023-08-17T12:18:07;3.72;;;3.10;;
54787;SDS011;59598;48.112;16.280;2023-08-17T12:20:41;3.60;;;3.30;;
54787;SDS011;59598;48.112;16.280;2023-08-17T12:23:23;4.07;;;3.00;;
54787;SDS011;59598;48.112;16.280;2023-08-17T12:25:55;3.63;;;3.33;;
54787;SDS011;59598;48.112;16.280;2023-08-17T12:28:27;3.83;;;3.17;;
54787;SDS011;59598;48.112;16.280;2023-08-17T12:31:02;3.40;;;3.10;;
54787;SDS011;59598;48.112;16.280;2023-08-17T12:33:37;4.03;;;3.53;;
54787;SDS011;59598;48.112;16.280;2023-08-17T12:36:08;4.18;;;3.42;;
54787;SDS011;59598;48.112;16.280;2023-08-17T12:38:40;4.43;;;3.85;;
54787;SDS011;59598;48.112;16.280;2023-08-17T12:41:15;5.07;;;3.45;;
54787;SDS011;59598;48.112;16.280;2023-08-17T12:43:50;5.82;;;3.78;;
54787;SDS011;59598;48.112;16.280;2023-08-17T12:46:24;3.67;;;3.30;;
54787;SDS011;59598;48.112;16.280;2023-08-17T12:49:03;5.43;;;3.83;;
54787;SDS011;59598;48.112;16.280;2023-08-17T12:51:36;4.97;;;3.42;;
54787;SDS011;59598;48.112;16.280;2023-08-17T12:54:08;4.82;;;3.38;;
54787;SDS011;59598;48.112;16.280;2023-08-17T12:56:44;3.83;;;2.95;;
54787;SDS011;59598;48.112;16.280;2023-08-17T12:59:17;3.35;;;3.05;;
54787;SDS011;59598;48.112;16.280;2023-08-17T13:01:51;8.25;;;4.05;;
54787;SDS011;59598;48.112;16.280;2023-08-17T13:04:22;3.65;;;2.95;;
54787;SDS011;59598;48.112;16.280;2023-08-17T13:06:53;5.30;;;2.90;;
54787;SDS011;59598;48.112;16.280;2023-08-17T13:09:26;3.88;;;3.45;;
54787;SDS011;59598;48.112;16.280;2023-08-17T13:12:00;4.28;;;3.28;;
54787;SDS011;59598;48.112;16.280;2023-08-17T13:14:34;3.65;;;3.10;;
54787;SDS011;59598;48.112;16.280;2023-08-17T13:17:05;4.30;;;3.28;;
54787;SDS011;59598;48.112;16.280;2023-08-17T13:19:40;3.40;;;3.10;;
54787;SDS011;59598;48.112;16.280;2023-08-17T13:22:15;3.70;;;3.28;;
54787;SDS011;59598;48.112;16.280;2023-08-17T13:24:49;6.85;;;3.28;;
54787;SDS011;59598;48.112;16.280;2023-08-17T13:27:22;3.33;;;3.03;;
54787;SDS011;59598;48.112;16.280;2023-08-17T13:29:57;4.22;;;3.30;;
54787;SDS011;59598;48.112;16.280;2023-08-17T13:32:32;4.20;;;2.90;;
54787;SDS011;59598;48.112;16.280;2023-08-17T13:35:06;4.80;;;3.40;;
54787;SDS011;59598;48.112;16.280;2023-08-17T13:37:38;3.33;;;2.97;;
54787;SDS011;59598;48.112;16.280;2023-08-17T13:40:09;4.60;;;3.50;;
54787;SDS011;59598;48.112;16.280;2023-08-17T13:42:45;4.28;;;3.08;;
54787;SDS011;59598;48.112;16.280;2023-08-17T13:47:50;3.30;;;2.97;;
54787;SDS011;59598;48.112;16.280;2023-08-17T13:50:24;3.33;;;2.88;;
54787;SDS011;59598;48.112;16.280;2023-08-17T13:52:56;4.82;;;2.67;;
54787;SDS011;59598;48.112;16.280;2023-08-17T13:55:31;2.95;;;2.60;;
54787;SDS011;59598;48.112;16.280;2023-08-17T13:58:03;2.92;;;2.70;;
54787;SDS011;59598;48.112;16.280;2023-08-17T14:00:35;3.13;;;2.72;;
54787;SDS011;59598;48.112;16.280;2023-08-17T14:03:07;3.60;;;2.63;;
54787;SDS011;59598;48.112;16.280;2023-08-17T14:05:39;4.40;;;2.58;;
54787;SDS011;59598;48.112;16.280;2023-08-17T14:08:13;2.80;;;2.60;;
54787;SDS011;59598;48.112;16.280;2023-08-17T14:10:44;3.97;;;2.60;;
54787;SDS011;59598;48.112;16.280;2023-08-17T14:13:19;3.55;;;2.92;;
54787;SDS011;59598;48.112;16.280;2023-08-17T14:18:28;3.05;;;2.70;;
54787;SDS011;59598;48.112;16.280;2023-08-17T14:23:32;3.13;;;2.80;;
54787;SDS011;59598;48.112;16.280;2023-08-17T14:26:04;4.40;;;2.80;;
54787;SDS011;59598;48.112;16.280;2023-08-17T14:28:37;3.43;;;2.83;;
54787;SDS011;59598;48.112;16.280;2023-08-17T14:31:10;3.58;;;2.85;;
54787;SDS011;59598;48.112;16.280;2023-08-17T14:33:48;3.60;;;3.00;;
54787;SDS011;59598;48.112;16.280;2023-08-17T14:36:21;3.08;;;2.78;;
54787;SDS011;59598;48.112;16.280;2023-08-17T14:38:52;3.67;;;2.92;;
54787;SDS011;59598;48.112;16.280;2023-08-17T14:41:29;4.68;;;3.33;;
54787;SDS011;59598;48.112;16.280;2023-08-17T14:44:08;5.05;;;3.13;;
54787;SDS011;59598;48.112;16.280;2023-08-17T14:46:40;3.85;;;3.13;;
54787;SDS011;59598;48.112;16.280;2023-08-17T14:49:12;3.42;;;3.10;;
54787;SDS011;59598;48.112;16.280;2023-08-17T14:51:44;5.18;;;3.03;;
54787;SDS011;59598;48.112;16.280;2023-08-17T14:54:18;3.53;;;2.72;;
54787;SDS011;59598;48.112;16.280;2023-08-17T14:56:50;4.47;;;2.70;;
54787;SDS011;59598;48.112;16.280;2023-08-17T14:59:23;4.73;;;3.00;;
54787;SDS011;59598;48.112;16.280;2023-08-17T15:01:59;8.85;;;2.97;;
54787;SDS011;59598;48.112;16.280;2023-08-17T15:04:31;2.97;;;2.67;;
54787;SDS011;59598;48.112;16.280;2023-08-17T15:07:04;3.03;;;2.72;;
54787;SDS011;59598;48.112;16.280;2023-08-17T15:09:41;2.90;;;2.70;;
54787;SDS011;59598;48.112;16.280;2023-08-17T15:12:19;3.28;;;2.97;;
54787;SDS011;59598;48.112;16.280;2023-08-17T15:14:56;7.22;;;3.28;;
54787;SDS011;59598;48.112;16.280;2023-08-17T15:17:32;3.33;;;2.55;;
54787;SDS011;59598;48.112;16.280;2023-08-17T15:20:06;3.30;;;2.65;;
54787;SDS011;59598;48.112;16.280;2023-08-17T15:22:39;2.90;;;2.60;;
54787;SDS011;59598;48.112;16.280;2023-08-17T15:25:10;3.20;;;2.75;;
54787;SDS011;59598;48.112;16.280;2023-08-17T15:27:45;3.50;;;3.20;;
54787;SDS011;59598;48.112;16.280;2023-08-17T15:30:19;5.90;;;2.85;;
54787;SDS011;59598;48.112;16.280;2023-08-17T15:32:53;3.47;;;3.17;;
54787;SDS011;59598;48.112;16.280;2023-08-17T15:35:25;4.18;;;3.78;;
54787;SDS011;59598;48.112;16.280;2023-08-17T15:37:57;4.63;;;2.97;;
54787;SDS011;59598;48.112;16.280;2023-08-17T15:40:28;3.60;;;3.17;;
54787;SDS011;59598;48.112;16.280;2023-08-17T15:43:02;3.40;;;3.08;;
54787;SDS011;59598;48.112;16.280;2023-08-17T15:45:34;3.63;;;2.83;;
54787;SDS011;59598;48.112;16.280;2023-08-17T15:50:43;4.03;;;3.20;;
54787;SDS011;59598;48.112;16.280;2023-08-17T15:53:14;3.75;;;3.20;;
54787;SDS011;59598;48.112;16.280;2023-08-17T15:55:46;3.38;;;2.95;;
54787;SDS011;59598;48.112;16.280;2023-08-17T15:58:25;3.50;;;3.20;;
54787;SDS011;59598;48.112;16.280;2023-08-17T16:01:02;3.90;;;3.50;;
54787;SDS011;59598;48.112;16.280;2023-08-17T16:03:34;3.70;;;3.33;;
54787;SDS011;59598;48.112;16.280;2023-08-17T16:06:07;3.22;;;2.95;;
54787;SDS011;59598;48.112;16.280;2023-08-17T16:08:39;9.43;;;3.05;;
54787;SDS011;59598;48.112;16.280;2023-08-17T16:11:13;3.00;;;2.78;;
54787;SDS011;59598;48.112;16.280;2023-08-17T16:13:48;4.20;;;3.03;;
54787;SDS011;59598;48.112;16.280;2023-08-17T16:16:25;3.22;;;3.03;;
54787;SDS011;59598;48.112;16.280;2023-08-17T16:19:02;3.08;;;2.60;;